createdAt,value
2023-02-03T00:01:47.292Z,101370.88
2023-02-03T00:04:16.120Z,101366.81
2023-02-03T00:06:44.462Z,101368.63
2023-02-03T00:09:13.859Z,101367.72
2023-02-03T00:11:41.754Z,101352.53
2023-02-03T00:14:09.679Z,101354.63
2023-02-03T00:16:37.569Z,101326.06
2023-02-03T00:19:05.575Z,101343.38
2023-02-03T00:21:33.435Z,101329.09
2023-02-03T00:24:01.392Z,101327.00
2023-02-03T00:26:30.732Z,101324.44
2023-02-03T00:29:00.814Z,101316.47
2023-02-03T00:31:28.910Z,101307.16
2023-02-03T00:33:58.339Z,101294.53
2023-02-03T00:36:27.235Z,101296.94
2023-02-03T00:38:55.695Z,101303.09
2023-02-03T00:41:23.583Z,101296.03
2023-02-03T00:43:52.773Z,101301.00
2023-02-03T00:46:20.926Z,101293.94
2023-02-03T00:48:49.304Z,101288.19
2023-02-03T00:51:17.123Z,101283.38
2023-02-03T00:53:45.073Z,101222.47
2023-02-03T00:56:13.518Z,101258.13
2023-02-03T00:58:41.583Z,101201.47
2023-02-03T01:01:11.625Z,101260.97
2023-02-03T01:03:40.327Z,101269.22
2023-02-03T01:06:13.875Z,101251.34
2023-02-03T01:08:42.060Z,101264.41
2023-02-03T01:11:11.088Z,101261.38
2023-02-03T01:13:39.591Z,101215.97
2023-02-03T01:16:11.054Z,101253.84
2023-02-03T01:18:39.840Z,101252.94
2023-02-03T01:21:09.454Z,101251.31
2023-02-03T01:23:37.851Z,101171.19
2023-02-03T01:26:07.242Z,101220.47
2023-02-03T01:28:35.267Z,101242.88
2023-02-03T01:31:12.711Z,101251.56
2023-02-03T01:33:41.242Z,101251.69
2023-02-03T01:36:10.369Z,101249.56
2023-02-03T01:38:39.222Z,101245.81
2023-02-03T01:41:11.129Z,101237.25
2023-02-03T01:43:41.515Z,101242.66
2023-02-03T01:46:23.994Z,101224.41
2023-02-03T01:48:53.040Z,101232.34
2023-02-03T01:51:22.164Z,101191.81
2023-02-03T01:53:52.540Z,101216.47
2023-02-03T01:56:21.322Z,101213.78
2023-02-03T01:58:50.809Z,101216.00
2023-02-03T02:01:20.201Z,101162.91
2023-02-03T02:03:53.944Z,101221.69
2023-02-03T02:06:22.054Z,101222.44
2023-02-03T02:08:53.022Z,101214.16
2023-02-03T02:11:22.666Z,101223.19
2023-02-03T02:13:53.162Z,101221.38
2023-02-03T02:16:31.116Z,101210.25
2023-02-03T02:19:18.009Z,101203.97
2023-02-03T02:21:57.575Z,101161.59
2023-02-03T02:25:04.658Z,101208.63
2023-02-03T02:28:13.158Z,101208.47
2023-02-03T02:30:57.358Z,101202.31
2023-02-03T02:33:37.863Z,101197.22
2023-02-03T02:36:17.230Z,101198.28
2023-02-03T02:38:51.343Z,101173.03
2023-02-03T02:41:21.635Z,101192.84
2023-02-03T02:43:59.246Z,101180.41
2023-02-03T02:46:35.269Z,101167.50
2023-02-03T02:49:10.923Z,101159.22
2023-02-03T02:51:43.880Z,101174.09
2023-02-03T02:54:17.119Z,101097.94
2023-02-03T02:56:49.583Z,101113.41
2023-02-03T02:59:17.735Z,101167.94
2023-02-03T03:01:45.615Z,101169.44
2023-02-03T03:04:18.754Z,101169.13
2023-02-03T03:06:50.891Z,101163.13
2023-02-03T03:09:23.507Z,101161.63
2023-02-03T03:11:56.233Z,101136.53
2023-02-03T03:14:27.983Z,101150.97
2023-02-03T03:17:00.913Z,101155.00
2023-02-03T03:19:36.005Z,101155.91
2023-02-03T03:22:05.955Z,101149.16
2023-02-03T03:24:41.560Z,101118.56
2023-02-03T03:27:13.582Z,101132.81
2023-02-03T03:29:45.186Z,101105.16
2023-02-03T03:32:13.215Z,101136.38
2023-02-03T03:34:43.294Z,101124.22
2023-02-03T03:37:16.478Z,101115.66
2023-02-03T03:39:48.402Z,101124.81
2023-02-03T03:42:22.056Z,101069.09
2023-02-03T03:44:58.467Z,101112.22
2023-02-03T03:47:32.767Z,101123.03
2023-02-03T03:50:05.288Z,101124.06
2023-02-03T03:52:37.241Z,101118.97
2023-02-03T03:55:09.430Z,101103.22
2023-02-03T03:57:41.283Z,101057.44
2023-02-03T04:00:12.470Z,101117.06
2023-02-03T04:02:42.113Z,101066.44
2023-02-03T04:05:13.275Z,101121.88
2023-02-03T04:07:44.199Z,101073.38
2023-02-03T04:10:19.313Z,101118.28
2023-02-03T04:12:47.209Z,101113.94
2023-02-03T04:15:15.347Z,101113.94
2023-02-03T04:17:43.410Z,101104.31
2023-02-03T04:20:14.140Z,101100.56
2023-02-03T04:22:42.243Z,101047.25
2023-02-03T04:25:10.566Z,101089.28
2023-02-03T04:27:38.629Z,101080.28
2023-02-03T04:30:07.786Z,101100.25
2023-02-03T04:32:35.982Z,101100.25
2023-02-03T04:35:05.346Z,101098.59
2023-02-03T04:37:34.727Z,101099.19
2023-02-03T04:40:02.648Z,101091.09
2023-02-03T04:42:30.481Z,101094.22
2023-02-03T04:44:58.425Z,101095.72
2023-02-03T04:47:26.516Z,101088.97
2023-02-03T04:49:54.347Z,101070.34
2023-02-03T04:52:22.241Z,101086.56
2023-02-03T04:54:51.499Z,101084.34
2023-02-03T04:57:19.403Z,101084.34
2023-02-03T04:59:47.316Z,101075.06
2023-02-03T05:02:15.403Z,101073.09
2023-02-03T05:04:43.347Z,101074.91
2023-02-03T05:07:11.342Z,101062.31
2023-02-03T05:09:39.311Z,101061.41
2023-02-03T05:12:08.905Z,101055.56
2023-02-03T05:14:36.816Z,101040.56
2023-02-03T05:17:04.788Z,101043.00
2023-02-03T05:19:32.670Z,101044.06
2023-02-03T05:22:00.595Z,101044.06
2023-02-03T05:24:28.680Z,101038.81
2023-02-03T05:26:56.690Z,101036.56
2023-02-03T05:29:25.962Z,101019.19
2023-02-03T05:31:53.829Z,101023.69
2023-02-03T05:34:21.707Z,101025.06
2023-02-03T05:36:49.637Z,101022.66
2023-02-03T05:39:17.513Z,101016.97
2023-02-03T05:41:54.894Z,101012.03
2023-02-03T05:44:26.975Z,101008.13
2023-02-03T05:46:56.694Z,100941.53
2023-02-03T05:49:24.973Z,101016.41
2023-02-03T05:51:54.235Z,101021.06
2023-02-03T05:54:22.558Z,101015.22
2023-02-03T05:56:50.567Z,100999.47
2023-02-03T05:59:18.495Z,100942.31
2023-02-03T06:01:47.677Z,100996.91
2023-02-03T06:04:15.626Z,100992.88
2023-02-03T06:06:43.623Z,100977.88
2023-02-03T06:09:11.495Z,100982.38
2023-02-03T06:11:39.433Z,100977.44
2023-02-03T06:14:07.572Z,100990.19
2023-02-03T06:16:35.434Z,100988.53
2023-02-03T06:19:05.061Z,100953.00
2023-02-03T06:21:33.005Z,100984.94
2023-02-03T06:24:00.890Z,100973.38
2023-02-03T06:26:28.792Z,100984.19
2023-02-03T06:28:56.706Z,100985.09
2023-02-03T06:31:24.866Z,100998.28
2023-02-03T06:33:52.935Z,100998.56
2023-02-03T06:36:22.581Z,101000.97
2023-02-03T06:38:50.523Z,100911.00
2023-02-03T06:41:18.507Z,100991.97
2023-02-03T06:43:46.403Z,100998.44
2023-02-03T06:46:14.326Z,100996.94
2023-02-03T06:48:42.283Z,101000.22
2023-02-03T06:51:10.214Z,101011.47
2023-02-03T06:53:39.471Z,100994.81
2023-02-03T06:56:07.568Z,101003.06
2023-02-03T06:58:35.591Z,101004.13
2023-02-03T07:01:03.758Z,101002.78
2023-02-03T07:03:31.651Z,101006.97
2023-02-03T07:05:59.701Z,101018.97
2023-02-03T07:08:27.694Z,101018.22
2023-02-03T07:10:56.976Z,101003.53
2023-02-03T07:13:24.918Z,101028.28
2023-02-03T07:15:53.153Z,101025.88
2023-02-03T07:18:45.936Z,101023.63
2023-02-03T07:21:12.812Z,101022.88
2023-02-03T07:23:40.951Z,100988.97
2023-02-03T07:26:12.114Z,101010.44
2023-02-03T07:28:40.138Z,101016.88
2023-02-03T07:31:08.314Z,101024.06
2023-02-03T07:33:36.222Z,101017.47
2023-02-03T07:36:04.766Z,101018.06
2023-02-03T07:38:32.926Z,101017.75
2023-02-03T07:41:00.788Z,101013.88
2023-02-03T07:43:30.251Z,100967.66
2023-02-03T07:45:58.130Z,101005.00
2023-02-03T07:48:25.988Z,101007.84
2023-02-03T07:50:54.194Z,101014.56
2023-02-03T07:53:22.035Z,101009.44
2023-02-03T07:55:49.893Z,101006.72
2023-02-03T07:58:17.949Z,100998.41
2023-02-03T08:00:47.137Z,101004.41
2023-02-03T08:03:14.980Z,101022.06
2023-02-03T08:05:43.144Z,100992.94
2023-02-03T08:08:10.988Z,101005.63
2023-02-03T08:10:39.004Z,100992.66
2023-02-03T08:13:07.044Z,101015.97
2023-02-03T08:15:34.927Z,100997.16
2023-02-03T08:18:04.603Z,101019.31
2023-02-03T08:20:32.599Z,101018.06
2023-02-03T08:23:00.534Z,101016.22
2023-02-03T08:25:28.361Z,100862.38
2023-02-03T08:27:56.481Z,100999.91
2023-02-03T08:30:24.971Z,101025.84
2023-02-03T08:32:52.834Z,101025.47
2023-02-03T08:35:22.418Z,101020.78
2023-02-03T08:37:50.525Z,100994.97
2023-02-03T08:40:18.891Z,101018.25
2023-02-03T08:42:46.981Z,101011.88
2023-02-03T08:45:14.842Z,101014.63
2023-02-03T08:47:42.710Z,101019.31
2023-02-03T08:50:11.718Z,101021.00
2023-02-03T08:52:41.500Z,101014.94
2023-02-03T08:55:09.733Z,101020.91
2023-02-03T08:57:38.199Z,101012.50
2023-02-03T09:00:07.389Z,100965.91
2023-02-03T09:02:35.302Z,101015.47
2023-02-03T09:05:03.393Z,101015.97
2023-02-03T09:07:31.272Z,101014.41
2023-02-03T09:10:00.444Z,100999.78
2023-02-03T09:12:28.450Z,101009.06
2023-02-03T09:14:56.258Z,100993.19
2023-02-03T09:17:24.070Z,101002.75
2023-02-03T09:19:52.095Z,100990.59
2023-02-03T09:22:19.988Z,100999.38
2023-02-03T09:24:50.582Z,101007.06
2023-02-03T09:27:20.054Z,100983.22
2023-02-03T09:29:47.870Z,100996.06
2023-02-03T09:32:15.942Z,101017.94
2023-02-03T09:34:44.084Z,101016.63
2023-02-03T09:37:11.936Z,101017.00
2023-02-03T09:39:39.752Z,101027.53
2023-02-03T09:42:29.827Z,101029.44
2023-02-03T09:45:09.773Z,100963.72
2023-02-03T09:47:40.790Z,101016.78
2023-02-03T09:50:15.377Z,101033.25
2023-02-03T09:52:44.959Z,101035.59
2023-02-03T09:55:23.946Z,101023.88
2023-02-03T09:57:57.182Z,101043.56
2023-02-03T10:00:29.467Z,101047.50
2023-02-03T10:03:04.013Z,101057.78
2023-02-03T10:05:48.084Z,101051.00
2023-02-03T10:08:28.262Z,101037.03
2023-02-03T10:11:10.648Z,101045.63
2023-02-03T10:13:53.123Z,101059.00
2023-02-03T10:16:39.787Z,100787.94
2023-02-03T10:19:12.571Z,101044.66
2023-02-03T10:21:44.808Z,101054.31
2023-02-03T10:24:17.415Z,101054.56
2023-02-03T10:26:45.302Z,101054.50
2023-02-03T10:29:21.587Z,101045.59
2023-02-03T10:31:49.888Z,101046.59
2023-02-03T10:34:19.881Z,101050.31
2023-02-03T10:36:56.692Z,101051.63
2023-02-03T10:39:33.580Z,101059.38
2023-02-03T10:42:03.961Z,101052.97
2023-02-03T10:44:39.986Z,101058.16
2023-02-03T10:47:24.814Z,101063.41
2023-02-03T10:49:54.358Z,101065.47
2023-02-03T10:52:30.819Z,101045.41
2023-02-03T10:55:00.444Z,101061.59
2023-02-03T10:57:31.061Z,101051.38
2023-02-03T11:00:22.446Z,101073.03
2023-02-03T11:02:57.579Z,101064.69
2023-02-03T11:05:26.577Z,101057.13
2023-02-03T11:07:55.191Z,101063.59
2023-02-03T11:10:35.606Z,101071.22
2023-02-03T11:13:22.484Z,101038.59
2023-02-03T11:15:56.994Z,101070.13
2023-02-03T11:18:39.486Z,101014.28
2023-02-03T11:21:10.297Z,101062.28
2023-02-03T11:23:39.244Z,101058.19
2023-02-03T11:26:16.263Z,101068.34
2023-02-03T11:28:47.729Z,101073.84
2023-02-03T11:31:24.028Z,101076.94
2023-02-03T11:33:56.236Z,101070.94
2023-02-03T11:36:27.527Z,101075.69
2023-02-03T11:39:10.992Z,101085.59
2023-02-03T11:41:39.898Z,101083.50
2023-02-03T11:44:18.871Z,101070.84
2023-02-03T11:46:51.508Z,100992.22
2023-02-03T11:49:52.893Z,101089.81
2023-02-03T11:52:41.851Z,101097.41
2023-02-03T11:55:20.997Z,101101.81
2023-02-03T11:58:01.915Z,101098.16
2023-02-03T12:00:38.900Z,101105.75
2023-02-03T12:03:34.604Z,101034.59
2023-02-03T12:06:29.700Z,101108.03
2023-02-03T12:09:13.703Z,101101.78
2023-02-03T12:12:04.999Z,101110.13
2023-02-03T12:14:48.723Z,101111.94
2023-02-03T12:17:39.587Z,101059.97
2023-02-03T12:20:24.470Z,101126.84
2023-02-03T12:23:01.554Z,101105.34
2023-02-03T12:25:38.399Z,101140.06
2023-02-03T12:28:32.468Z,101146.53
2023-02-03T12:31:06.303Z,101155.13
2023-02-03T12:33:40.687Z,101154.09
2023-02-03T12:36:16.687Z,101129.25
2023-02-03T12:38:52.116Z,101145.75
2023-02-03T12:41:24.073Z,101156.78
2023-02-03T12:43:56.261Z,101105.94
2023-02-03T12:46:29.232Z,101173.22
2023-02-03T12:49:02.992Z,101179.63
2023-02-03T12:51:40.408Z,101181.09
2023-02-03T12:54:23.648Z,101187.63
2023-02-03T12:56:55.173Z,101136.28
2023-02-03T12:59:26.642Z,101203.03
2023-02-03T13:02:00.102Z,101202.22
2023-02-03T13:04:35.892Z,101223.56
2023-02-03T13:07:14.002Z,101227.72
2023-02-03T13:09:50.843Z,101237.06
2023-02-03T13:12:30.898Z,101242.78
2023-02-03T13:15:07.482Z,101238.63
2023-02-03T13:17:43.327Z,101266.34
2023-02-03T13:20:18.689Z,101269.63
2023-02-03T13:22:48.464Z,101281.97
2023-02-03T13:25:24.171Z,101202.63
2023-02-03T13:28:09.158Z,101288.13
2023-02-03T13:30:57.969Z,101290.03
2023-02-03T13:33:53.440Z,101277.22
2023-02-03T13:36:52.149Z,101300.13
2023-02-03T13:39:45.127Z,101305.72
2023-02-03T13:42:22.696Z,101315.69
2023-02-03T13:44:55.283Z,101277.59
2023-02-03T13:47:27.397Z,101330.81
2023-02-03T13:49:59.987Z,101340.25
2023-02-03T13:52:32.689Z,101341.03
2023-02-03T13:55:03.630Z,101366.72
2023-02-03T13:57:35.624Z,101354.25
2023-02-03T14:00:06.528Z,101267.16
2023-02-03T14:02:46.660Z,101358.03
2023-02-03T14:05:44.390Z,101365.28
2023-02-03T14:08:53.043Z,101354.75
2023-02-03T14:11:43.456Z,101380.66
2023-02-03T14:14:42.733Z,101384.47
2023-02-03T14:17:58.762Z,101384.66
2023-02-03T14:20:49.250Z,101370.78
2023-02-03T14:23:26.655Z,101384.09
2023-02-03T14:25:57.869Z,101395.28
2023-02-03T14:28:38.230Z,101406.91
2023-02-03T14:31:10.829Z,101407.19
2023-02-03T14:34:06.993Z,101416.22
2023-02-03T14:36:48.045Z,101421.78
2023-02-03T14:39:49.030Z,101424.63
2023-02-03T14:42:51.978Z,101410.13
2023-02-03T14:45:37.092Z,101430.97
2023-02-03T14:48:15.398Z,101433.06
2023-02-03T14:50:59.873Z,101423.81
2023-02-03T14:53:52.998Z,101464.22
2023-02-03T14:56:52.563Z,101468.72
2023-02-03T14:59:25.677Z,101479.13
2023-02-03T15:02:23.239Z,101488.91
2023-02-03T15:04:51.440Z,101496.09
2023-02-03T15:07:44.827Z,101494.81
2023-02-03T15:10:18.199Z,101501.34
2023-02-03T15:12:48.395Z,101500.44
2023-02-03T15:15:27.440Z,101517.03
2023-02-03T15:17:59.592Z,101518.44
2023-02-03T15:20:32.969Z,101528.59
2023-02-03T15:23:02.247Z,101532.56
2023-02-03T15:25:32.975Z,101539.25
2023-02-03T15:28:16.991Z,101518.38
2023-02-03T15:30:45.623Z,101545.66
2023-02-03T15:33:20.499Z,101537.41
2023-02-03T15:35:51.407Z,101557.22
2023-02-03T15:38:25.719Z,101562.00
2023-02-03T15:40:57.842Z,101571.66
2023-02-03T15:43:31.444Z,101582.19
2023-02-03T15:46:06.445Z,101580.66
2023-02-03T15:48:41.951Z,101568.81
2023-02-03T15:51:13.455Z,101572.00
2023-02-03T15:53:49.193Z,101520.69
2023-02-03T15:56:23.605Z,101615.09
2023-02-03T15:58:51.889Z,101616.22
2023-02-03T16:01:26.097Z,101590.41
2023-02-03T16:03:57.183Z,101618.59
2023-02-03T16:06:30.475Z,101624.09
2023-02-03T16:08:59.818Z,101642.44
2023-02-03T16:11:31.741Z,101650.63
2023-02-03T16:14:01.802Z,101646.75
2023-02-03T16:16:33.796Z,101651.59
2023-02-03T16:19:05.265Z,101659.94
2023-02-03T16:21:36.239Z,101667.38
2023-02-03T16:24:05.514Z,101639.59
2023-02-03T16:26:36.726Z,101665.50
2023-02-03T16:29:33.147Z,101681.19
2023-02-03T16:32:19.438Z,101686.38
2023-02-03T16:35:06.247Z,101688.94
2023-02-03T16:37:53.756Z,101695.47
2023-02-03T16:40:42.415Z,101706.09
2023-02-03T16:43:31.627Z,101685.44
2023-02-03T16:46:18.687Z,101659.09
2023-02-03T16:49:04.954Z,101683.38
2023-02-03T16:51:40.336Z,101720.88
2023-02-03T16:54:13.059Z,101738.97
2023-02-03T16:56:41.114Z,101743.84
2023-02-03T16:59:09.393Z,101749.00
2023-02-03T17:01:37.553Z,101732.88
2023-02-03T17:04:05.796Z,101775.47
2023-02-03T17:06:34.717Z,101778.16
2023-02-03T17:09:04.117Z,101793.66
2023-02-03T17:11:31.981Z,101787.44
2023-02-03T17:14:00.075Z,101788.00
2023-02-03T17:16:29.005Z,101734.38
2023-02-03T17:18:57.224Z,101803.38
2023-02-03T17:21:27.586Z,101801.22
2023-02-03T17:23:55.621Z,101813.44
2023-02-03T17:26:24.856Z,101813.31
2023-02-03T17:28:52.845Z,101816.94
2023-02-03T17:31:22.112Z,101825.63
2023-02-03T17:33:52.216Z,101824.13
2023-02-03T17:36:21.733Z,101835.44
2023-02-03T17:55:25.487Z,101878.28
2023-02-03T17:57:54.759Z,101889.47
2023-02-03T18:00:22.646Z,101884.19
2023-02-03T18:02:51.873Z,101713.94
2023-02-03T18:05:20.283Z,101887.66
2023-02-03T18:10:21.089Z,101894.16
2023-02-03T18:12:49.175Z,101894.28
2023-02-03T18:15:18.441Z,101896.72
2023-02-03T18:17:46.676Z,101897.00
2023-02-03T18:20:14.894Z,101908.34
2023-02-03T18:22:42.746Z,101895.94
2023-02-03T18:25:11.831Z,101921.63
2023-02-03T18:27:39.640Z,101930.25
2023-02-03T18:30:11.248Z,101886.53
2023-02-03T18:32:40.579Z,101932.19
2023-02-03T18:35:13.028Z,101934.91
2023-02-03T18:37:41.043Z,101947.00
2023-02-03T18:40:09.442Z,101948.81
2023-02-03T18:42:37.250Z,101953.97
2023-02-03T18:45:06.494Z,101952.00
2023-02-03T18:47:36.177Z,101961.25
2023-02-03T18:50:06.851Z,101970.50
2023-02-03T18:52:35.060Z,101972.00
2023-02-03T18:55:02.880Z,101979.72
2023-02-03T18:57:30.932Z,101972.91
2023-02-03T18:59:58.739Z,101968.09
2023-02-03T19:02:28.139Z,101951.97
2023-02-03T19:04:56.212Z,101988.06
2023-02-03T19:07:25.655Z,101998.97
2023-02-03T19:09:53.655Z,101959.00
2023-02-03T19:12:21.581Z,101991.28
2023-02-03T19:14:49.446Z,102012.75
2023-02-03T19:17:17.615Z,102000.97
2023-02-03T19:19:45.816Z,101973.50
2023-02-03T19:22:13.954Z,102022.13
2023-02-03T19:24:43.142Z,102029.69
2023-02-03T19:27:10.995Z,102022.72
2023-02-03T19:29:40.088Z,102033.34
2023-02-03T19:32:09.846Z,102024.03
2023-02-03T19:34:37.867Z,101997.19
2023-02-03T19:37:06.302Z,102060.47
2023-02-03T19:39:34.255Z,102087.53
2023-02-03T19:42:03.895Z,102084.50
2023-02-03T19:44:31.689Z,102090.84
2023-02-03T19:46:59.729Z,102082.38
2023-02-03T19:49:28.760Z,102086.63
2023-02-03T19:51:56.599Z,102100.22
2023-02-03T19:54:24.549Z,102107.50
2023-02-03T19:56:53.747Z,102105.09
2023-02-03T19:59:22.976Z,102120.22
2023-02-03T20:01:51.040Z,102087.13
2023-02-03T20:04:19.196Z,102120.22
2023-02-03T20:06:47.063Z,102112.06
2023-02-03T20:09:14.902Z,102122.03
2023-02-03T20:11:42.847Z,102136.84
2023-02-03T20:14:11.216Z,102139.59
2023-02-03T20:16:40.471Z,102140.34
2023-02-03T20:19:08.460Z,102131.72
2023-02-03T20:21:36.281Z,102151.06
2023-02-03T20:24:04.321Z,102152.56
2023-02-03T20:26:32.270Z,102155.91
2023-02-03T20:29:00.061Z,102150.75
2023-02-03T20:31:28.061Z,102160.13
2023-02-03T20:33:57.534Z,102156.63
2023-02-03T20:36:25.372Z,102181.88
2023-02-03T20:38:53.333Z,102185.22
2023-02-03T20:41:21.332Z,102182.31
2023-02-03T20:43:49.341Z,102181.84
2023-02-03T20:46:20.076Z,102197.25
2023-02-03T20:48:48.522Z,102206.16
2023-02-03T20:51:21.107Z,102216.56
2023-02-03T20:53:50.089Z,102179.06
2023-02-03T20:56:21.471Z,102222.44
2023-02-03T20:58:49.531Z,102220.16
2023-02-03T21:01:19.918Z,102187.13
2023-02-03T21:04:05.919Z,102219.03
2023-02-03T21:06:36.158Z,102232.91
2023-02-03T21:09:13.538Z,102248.91
2023-02-03T21:11:41.895Z,102263.81
2023-02-03T21:14:20.864Z,102163.59
2023-02-03T21:16:49.037Z,102259.41
2023-02-03T21:19:30.015Z,102238.00
2023-02-03T21:22:00.424Z,102267.63
2023-02-03T21:24:30.804Z,102278.38
2023-02-03T21:27:00.249Z,102279.88
2023-02-03T21:29:32.776Z,102280.59
2023-02-03T21:32:01.147Z,102226.19
2023-02-03T21:34:31.260Z,102299.16
2023-02-03T21:37:09.341Z,102306.69
2023-02-03T21:39:37.492Z,102312.41
2023-02-03T21:42:41.225Z,102311.00
2023-02-03T21:45:28.393Z,102325.06
2023-02-03T21:47:59.317Z,102330.03
2023-02-03T21:50:32.219Z,102287.88
2023-02-03T21:53:22.803Z,102349.06
2023-02-03T21:55:50.707Z,102352.53
2023-02-03T21:58:24.006Z,102339.72
2023-02-03T22:00:53.444Z,102348.16
2023-02-03T22:03:27.510Z,102332.75
2023-02-03T22:06:06.032Z,102343.03
2023-02-03T22:08:39.185Z,102351.47
2023-02-03T22:11:07.023Z,102365.03
2023-02-03T22:13:35.711Z,102365.78
2023-02-03T22:16:04.091Z,102365.94
2023-02-03T22:18:31.943Z,102375.28
2023-02-03T22:20:59.858Z,102325.59
2023-02-03T22:23:27.891Z,102374.63
2023-02-03T22:25:57.091Z,102286.09
2023-02-03T22:28:25.000Z,102388.44
2023-02-03T22:30:53.033Z,102396.81
2023-02-03T22:33:21.038Z,102325.91
2023-02-03T22:35:49.004Z,102404.75
2023-02-03T22:38:16.986Z,102399.19
2023-02-03T22:40:44.846Z,102415.66
2023-02-03T22:43:14.218Z,102423.53
2023-02-03T22:45:42.262Z,102426.84
2023-02-03T22:48:10.138Z,102419.81
2023-02-03T22:50:38.441Z,102447.59
2023-02-03T22:53:08.288Z,102442.72
2023-02-03T22:55:37.893Z,102392.00
2023-02-03T22:58:06.695Z,102447.19
2023-02-03T23:00:36.408Z,102440.16
2023-02-03T23:03:06.138Z,102458.94
2023-02-03T23:05:34.184Z,102468.72
2023-02-03T23:08:02.086Z,102465.66
2023-02-03T23:10:32.037Z,102464.47
2023-02-03T23:13:01.669Z,102477.72
2023-02-03T23:15:30.214Z,102488.88
2023-02-03T23:17:59.533Z,102496.41
2023-02-03T23:20:27.398Z,102496.81
2023-02-03T23:22:55.529Z,102302.38
2023-02-03T23:25:23.439Z,102420.31
2023-02-03T23:27:51.384Z,102486.63
2023-02-03T23:30:19.836Z,102495.00
2023-02-03T23:32:47.716Z,102520.56
2023-02-03T23:35:34.522Z,102520.72
2023-02-03T23:38:02.484Z,102517.75
2023-02-03T23:40:30.611Z,102524.13
2023-02-03T23:42:58.798Z,102488.50
2023-02-03T23:45:26.759Z,102530.28
2023-02-03T23:47:54.645Z,102526.22
2023-02-03T23:50:24.058Z,102532.50
2023-02-03T23:52:51.942Z,102536.38
2023-02-03T23:55:21.877Z,102514.75
2023-02-03T23:57:49.929Z,102549.63
